Latest Weather Observations for Smithton

IDT60801

Issued at 3:32 am EDT Thursday 23 November 2017 (issued every 30 minutes, with the page automatically refreshed every 10 minutes)

About weather observations | Map of weather stations | Latest weather observations for TAS | Other Formats
Station Details ID: 091292 Name: SMITHTON AERODROME Lat: -40.83 Lon: 145.08 Height: 7.5 m
Data from the previous 72 hours. | See also: Recent months at Smithton
Date/Time
EDT
Temp
°C
App
Temp
°C
Dew
Point
°C
Rel
Hum
%
Delta-T
°C
Wind Press
QNH
hPa
Press
MSL
hPa
Rain since
9am
mm
Dir  Spd
km/h
Gust
km/h
Spd
kts
Gust
kts
23/03:30am 15.8 13.2 15.0 95 0.5 E 22 30 12 16 1015.1 - 0.0
23/03:00am 15.9 13.8 15.3 96 0.3 E 20 30 11 16 1015.5 1015.5 0.0
23/02:30am 16.0 13.5 15.2 95 0.5 E 22 32 12 17 1015.8 - 0.0
23/02:00am 15.9 14.0 15.3 96 0.3 E 19 24 10 13 1016.2 - 0.0
23/01:30am 16.1 13.7 15.3 95 0.5 E 22 32 12 17 1016.4 - 0.0
23/01:00am 16.1 14.0 15.1 94 0.6 E 20 28 11 15 1016.6 - 0.0
23/12:30am 16.0 14.0 15.4 96 0.3 E 20 30 11 16 1016.7 - 0.0
23/12:00am 15.6 13.4 15.0 96 0.3 E 20 28 11 15 1016.7 1016.7 0.0
 
Date/Time
EDT
Temp
°C
App
Temp
°C
Dew
Point
°C
Rel
Hum
%
Delta-T
°C
Wind Press
QNH
hPa
Press
MSL
hPa
Rain since
9am
mm
Dir  Spd
km/h
Gust
km/h
Spd
kts
Gust
kts
22/11:30pm 15.7 13.1 14.9 95 0.5 E 22 28 12 15 1017.0 - 0.0
22/11:00pm 15.7 13.5 14.4 92 0.7 E 19 24 10 13 1017.1 - 0.0
22/10:30pm 15.5 13.6 14.2 92 0.7 E 17 20 9 11 1017.3 - 0.0
22/10:00pm 15.7 13.8 14.2 91 0.9 E 17 22 9 12 1017.4 - 0.0
22/09:30pm 16.1 14.2 14.3 89 1.0 E 17 24 9 13 1017.6 - 0.0
22/09:00pm 16.3 14.0 14.1 87 1.2 E 19 22 10 12 1017.4 1017.4 0.0
22/08:30pm 16.8 14.4 13.7 82 1.8 E 19 26 10 14 1017.4 - 0.0
22/08:00pm 17.6 14.6 13.7 78 2.2 ENE 22 33 12 18 1017.2 - 0.0
22/07:30pm 18.3 14.9 13.8 75 2.6 ENE 24 39 13 21 1017.2 - 0.0
22/07:00pm 18.8 14.6 13.6 72 3.0 ENE 28 35 15 19 1017.1 - 0.0
22/06:30pm 19.3 15.7 14.1 72 3.0 ENE 26 33 14 18 1017.1 - 0.0
22/06:00pm 19.8 16.1 14.0 69 3.3 ENE 26 35 14 19 1017.2 1017.2 0.0
22/05:30pm 20.3 16.5 14.7 70 3.3 ENE 28 37 15 20 1017.2 - 0.0
22/05:00pm 20.3 15.6 14.2 68 3.5 ENE 32 43 17 23 1017.4 - 0.0
22/04:30pm 20.9 16.2 14.3 66 3.8 ENE 32 41 17 22 1017.6 - 0.0
22/04:00pm 20.8 16.1 14.2 66 3.8 ENE 32 43 17 23 1017.9 - 0.0
22/03:30pm 21.2 16.4 14.6 66 3.9 ENE 33 44 18 24 1018.1 - 0.0
22/03:00pm 21.0 15.8 14.6 67 3.7 ENE 35 46 19 25 1018.3 1018.3 0.0
22/02:30pm 21.0 16.2 14.6 67 3.7 ENE 33 44 18 24 1018.8 - 0.0
22/02:00pm 21.3 16.5 14.7 66 3.9 ENE 33 54 18 29 1019.1 - 0.0
22/01:49pm 20.9 15.6 14.3 66 3.8 ENE 35 54 19 29 1019.0 - 0.0
22/01:30pm 20.9 15.4 14.8 68 3.6 ENE 37 52 20 28 1019.4 - 0.0
22/01:00pm 20.8 15.1 14.2 66 3.8 E 37 48 20 26 1019.5 - 0.0
22/12:30pm 21.0 15.5 14.6 67 3.7 ENE 37 52 20 28 1019.7 - 0.0
22/12:00pm 20.5 14.8 14.2 67 3.6 ENE 37 50 20 27 1019.8 1019.8 0.0
22/11:30am 20.4 15.1 14.1 67 3.6 ENE 35 52 19 28 1019.9 - 0.0
22/11:28am 20.4 15.5 14.3 68 3.5 ENE 33 52 18 28 1019.8 - 0.0
22/11:00am 20.4 15.4 14.1 67 3.6 ENE 33 48 18 26 1020.0 - 0.0
22/10:39am 20.3 15.4 14.4 69 3.4 ENE 33 54 18 29 1019.9 - 0.0
22/10:30am 20.4 15.4 15.0 71 3.2 ENE 35 50 19 27 1020.1 - 0.0
22/10:09am 20.3 15.6 14.9 71 3.2 E 33 52 18 28 1020.2 - 0.0
22/10:00am 20.0 14.4 14.4 70 3.3 E 37 48 20 26 1020.0 - 0.0
22/09:30am 19.7 15.0 14.3 71 3.1 ENE 32 46 17 25 1020.2 - 0.0
22/09:14am 19.4 14.5 14.4 73 2.9 E 33 52 18 28 1020.3 - 0.0
22/09:00am 19.4 14.8 15.1 76 2.5 E 33 46 18 25 1020.3 1020.3 0.0
22/08:30am 18.6 13.4 14.5 77 2.4 E 35 50 19 27 1020.2 - 0.0
22/08:08am 18.5 14.0 14.8 79 2.2 E 32 50 17 27 1020.1 - 0.0
22/08:00am 18.1 13.2 14.4 79 2.1 E 33 46 18 25 1020.2 - 0.0
22/07:43am 17.7 13.0 14.2 80 2.0 E 32 54 17 29 1020.1 - 0.0
22/07:30am 17.7 13.1 14.6 82 1.8 E 32 44 17 24 1020.1 - 0.0
22/07:00am 17.0 12.6 14.1 83 1.7 E 30 41 16 22 1020.0 - 0.0
22/06:30am 16.5 11.8 14.2 86 1.3 E 32 43 17 23 1019.8 - 0.0
22/06:00am 16.3 12.3 14.1 87 1.2 E 28 43 15 23 1019.8 1019.8 0.0
22/05:30am 16.3 11.5 14.1 87 1.2 E 32 44 17 24 1019.6 - 0.0
22/05:00am 16.2 11.8 14.2 88 1.1 E 30 43 16 23 1019.4 - 0.0
22/04:30am 16.1 12.1 14.1 88 1.1 E 28 41 15 22 1019.4 - 0.0
22/04:00am 16.0 12.1 14.4 90 0.9 E 28 39 15 21 1019.5 - 0.0
22/03:30am 16.2 12.3 14.4 89 1.0 E 28 41 15 22 1019.5 - 0.0
22/03:02am 16.3 12.0 14.3 88 1.1 E 30 48 16 26 1019.7 - 0.0
22/03:00am 16.4 11.7 14.4 88 1.1 E 32 48 17 26 1019.7 1019.7 0.0
22/02:45am 16.4 12.5 14.4 88 1.1 E 28 46 15 25 1019.7 - 0.0
22/02:30am 16.4 12.1 14.4 88 1.1 E 30 41 16 22 1019.6 - 0.0
22/02:12am 16.4 12.1 14.4 88 1.1 E 30 48 16 26 1019.6 - 0.0
22/02:00am 16.4 12.1 14.4 88 1.1 E 30 44 16 24 1019.7 - 0.0
22/01:30am 16.5 12.6 14.5 88 1.1 E 28 43 15 23 1019.9 - 0.0
22/01:00am 16.7 12.4 14.5 87 1.3 E 30 43 16 23 1020.1 - 0.0
22/12:30am 16.7 12.1 14.7 88 1.2 E 32 41 17 22 1020.3 - 0.0
22/12:00am 16.8 11.9 14.4 86 1.4 E 33 46 18 25 1020.8 1020.8 0.0
 
Date/Time
EDT
Temp
°C
App
Temp
°C
Dew
Point
°C
Rel
Hum
%
Delta-T
°C
Wind Press
QNH
hPa
Press
MSL
hPa
Rain since
9am
mm
Dir  Spd
km/h
Gust
km/h
Spd
kts
Gust
kts
21/11:30pm 17.0 12.4 14.5 85 1.4 E 32 44 17 24 1021.1 - 0.0
21/11:00pm 17.0 13.1 14.3 84 1.5 ENE 28 39 15 21 1021.3 - 0.0
21/10:30pm 16.9 14.1 14.4 85 1.4 ENE 22 35 12 19 1021.5 - 0.0
21/10:00pm 16.9 14.6 14.2 84 1.5 E 19 30 10 16 1021.5 - 0.0
21/09:30pm 16.6 14.6 13.9 84 1.5 E 17 28 9 15 1021.2 - 0.0
21/09:00pm 16.8 14.5 14.1 84 1.5 E 19 24 10 13 1021.1 1021.1 0.0
21/08:30pm 17.0 14.6 13.9 82 1.8 E 19 28 10 15 1020.9 - 0.0
21/08:00pm 17.7 14.8 14.0 79 2.1 E 22 30 12 16 1020.9 - 0.0
21/07:30pm 18.2 14.6 14.1 77 2.3 E 26 37 14 20 1020.7 - 0.0
21/07:00pm 18.8 14.9 14.3 75 2.6 E 28 39 15 21 1020.6 - 0.0
21/06:30pm 19.5 15.5 14.1 71 3.1 E 28 41 15 22 1020.8 - 0.0
21/06:00pm 19.8 14.9 14.4 71 3.1 E 33 46 18 25 1020.7 1020.7 0.0
21/05:34pm 20.3 15.7 14.7 70 3.3 E 32 50 17 27 1021.0 - 0.0
21/05:30pm 20.2 15.4 14.6 70 3.3 E 33 50 18 27 1021.0 - 0.0
21/05:00pm 20.3 15.0 14.2 68 3.5 E 35 52 19 28 1021.1 - 0.0
21/04:54pm 20.8 16.6 14.7 68 3.6 E 30 50 16 27 1021.0 - 0.0
21/04:30pm 20.4 14.9 14.7 70 3.3 E 37 50 20 27 1021.2 - 0.0
21/04:00pm 20.8 15.4 14.9 69 3.5 ENE 37 48 20 26 1021.3 - 0.0
21/03:30pm 20.8 15.4 14.9 69 3.5 E 37 52 20 28 1021.6 - 0.0
21/03:00pm 20.3 13.6 14.7 70 3.3 E 43 56 23 30 1022.0 1022.0 0.0
21/02:52pm 20.4 14.7 14.3 68 3.5 E 37 56 20 30 1022.1 - 0.0
21/02:30pm 21.0 15.3 15.3 70 3.4 ENE 39 52 21 28 1022.3 - 0.0
21/02:00pm 21.0 16.1 15.3 70 3.4 E 35 50 19 27 1022.5 - 0.0
21/01:39pm 21.1 16.1 15.0 68 3.6 ENE 35 54 19 29 1022.7 - 0.0
21/01:30pm 21.0 14.6 15.3 70 3.4 ENE 43 54 23 29 1022.7 - 0.0
21/01:08pm 21.6 16.5 15.7 69 3.5 ENE 37 56 20 30 1022.8 - 0.0
21/01:00pm 21.0 15.6 15.1 69 3.5 ENE 37 54 20 29 1022.8 - 0.0
21/12:30pm 21.8 17.8 16.3 71 3.3 ENE 32 50 17 27 1023.2 - 0.0
21/12:10pm 20.8 16.1 14.9 69 3.5 ENE 33 52 18 28 1023.3 - 0.0
21/12:00pm 20.5 15.1 15.1 71 3.2 ENE 37 52 20 28 1023.4 1023.4 0.0
21/11:30am 20.2 14.7 14.8 71 3.2 ENE 37 54 20 29 1023.5 - 0.0
21/11:01am 19.8 14.5 14.2 70 3.2 E 35 54 19 29 1023.5 - 0.0
21/11:00am 19.8 14.6 14.4 71 3.1 E 35 52 19 28 1023.6 - 0.0
21/10:34am 19.8 14.9 14.4 71 3.1 ENE 33 52 18 28 1023.6 - 0.0
21/10:30am 20.2 15.2 15.0 72 3.1 E 35 48 19 26 1023.5 - 0.0
21/10:00am 18.8 12.8 14.5 76 2.5 E 39 57 21 31 1023.6 - 0.0
21/09:58am 18.8 12.9 14.7 77 2.4 E 39 57 21 31 1023.7 - 0.0
21/09:30am 18.7 14.2 14.8 78 2.3 ENE 32 41 17 22 1023.7 - 0.0
21/09:00am 18.3 14.5 14.8 80 2.0 E 28 43 15 23 1023.8 1023.8 0.0
21/08:30am 18.2 13.6 14.7 80 2.0 E 32 46 17 25 1023.6 - 0.0
21/08:00am 17.7 13.4 14.4 81 1.9 ENE 30 39 16 21 1023.3 - 0.0
21/07:30am 17.4 13.6 14.7 84 1.6 E 28 44 15 24 1023.1 - 0.0
21/07:00am 16.8 13.3 14.6 87 1.3 E 26 37 14 20 1022.9 - 0.0
21/06:30am 16.3 12.9 14.8 91 0.9 E 26 33 14 18 1022.9 - 0.0
21/06:00am 15.8 12.9 15.0 95 0.5 E 24 33 13 18 1022.6 1022.6 0.0
21/05:30am 15.7 12.4 15.1 96 0.3 E 26 35 14 19 1022.3 - 0.0
21/05:00am 15.9 13.1 15.3 96 0.3 E 24 39 13 21 1022.3 - 0.0
21/04:30am 15.8 12.6 15.3 97 0.3 E 26 37 14 20 1022.2 - 0.0
21/04:00am 15.8 12.9 15.2 96 0.3 E 24 35 13 19 1022.4 - 0.0
21/03:30am 15.9 13.1 15.3 96 0.3 E 24 37 13 20 1022.5 - 0.0
21/03:00am 16.1 13.2 15.1 94 0.6 E 24 32 13 17 1022.6 1022.6 0.0
21/02:30am 16.2 12.9 14.9 92 0.7 ENE 26 41 14 22 1022.6 - 0.0
21/02:00am 16.4 13.4 14.9 91 0.9 ENE 24 35 13 19 1022.9 - 0.0
21/01:30am 16.4 13.4 14.8 90 0.9 E 24 35 13 19 1023.1 - 0.0
21/01:00am 16.7 13.2 14.5 87 1.3 E 26 33 14 18 1023.2 - 0.0
21/12:30am 16.7 13.6 14.5 87 1.3 E 24 32 13 17 1023.5 - 0.0
21/12:00am 16.5 13.8 14.7 89 1.0 ENE 22 32 12 17 1023.8 1023.8 0.0
 
Date/Time
EDT
Temp
°C
App
Temp
°C
Dew
Point
°C
Rel
Hum
%
Delta-T
°C
Wind Press
QNH
hPa
Press
MSL
hPa
Rain since
9am
mm
Dir  Spd
km/h
Gust
km/h
Spd
kts
Gust
kts
20/11:30pm 16.5 14.2 14.7 89 1.0 E 20 32 11 17 1023.9 - 0.0
20/11:00pm 16.5 14.2 14.7 89 1.0 E 20 30 11 16 1024.0 - 0.0
20/10:30pm 16.5 14.2 14.7 89 1.0 ENE 20 30 11 16 1024.3 - 0.0
20/10:00pm 16.3 14.1 14.5 89 1.0 ENE 19 26 10 14 1024.5 - 0.0
20/09:30pm 16.4 14.2 14.4 88 1.1 ENE 19 24 10 13 1024.2 - 0.0
20/09:00pm 16.6 14.4 14.4 87 1.3 E 19 26 10 14 1024.1 1024.1 0.0
20/08:30pm 16.9 14.5 14.5 86 1.4 ENE 20 28 11 15 1024.2 - 0.0
20/08:00pm 17.6 14.6 14.9 84 1.6 ENE 24 32 13 17 1024.0 - 0.0
20/07:30pm 18.3 15.1 15.2 82 1.8 ENE 26 37 14 20 1023.9 - 0.0
20/07:00pm 18.8 15.6 15.3 80 2.1 ENE 26 35 14 19 1023.7 - 0.0
20/06:30pm 19.4 16.7 15.5 78 2.3 ENE 24 37 13 20 1023.6 - 0.0
20/06:00pm 18.7 14.8 15.4 81 1.9 ENE 30 37 16 20 1023.6 1023.6 0.0
20/05:30pm 18.6 14.6 15.3 81 1.9 ENE 30 41 16 22 1023.6 - 0.0
20/05:00pm 20.8 16.9 16.4 76 2.7 ENE 32 43 17 23 1023.6 - 0.0
20/04:30pm 20.7 16.5 16.3 76 2.6 ENE 33 46 18 25 1023.7 - 0.0
20/04:00pm 20.7 15.7 16.1 75 2.8 ENE 37 46 20 25 1023.7 - 0.0
20/03:30pm 21.0 17.0 16.6 76 2.7 ENE 33 48 18 26 1024.0 - 0.0
20/03:00pm 20.8 16.9 16.4 76 2.6 ENE 32 46 17 25 1024.1 1024.1 0.0
20/02:30pm 21.0 16.8 16.2 74 2.9 ENE 33 43 18 23 1024.4 - 0.0
20/02:00pm 21.3 17.3 16.7 75 2.8 ENE 33 50 18 27 1024.6 - 0.0
20/01:30pm 20.5 15.8 15.9 75 2.7 ENE 35 48 19 26 1024.5 - 0.0
20/01:13pm 20.1 15.6 15.3 74 2.8 ENE 33 52 18 28 1024.6 - 0.0
20/01:00pm 20.4 15.8 16.2 77 2.5 ENE 35 48 19 26 1024.7 - 0.0
20/12:36pm 20.3 15.6 15.9 76 2.6 E 35 54 19 29 1024.9 - 0.0
20/12:30pm 20.4 15.4 16.2 77 2.5 E 37 54 20 29 1024.8 - 0.0
20/12:27pm 20.3 15.6 15.9 76 2.6 ENE 35 54 19 29 1024.9 - 0.0
20/12:00pm 20.0 15.0 16.2 79 2.3 E 37 48 20 26 1025.0 1025.0 0.0
20/11:30am 19.3 15.0 15.8 80 2.1 E 33 44 18 24 1025.2 - 0.0
20/11:00am 19.3 15.1 15.8 80 2.1 E 32 43 17 23 1025.5 - 0.0
20/10:30am 19.0 14.5 15.5 80 2.1 E 33 44 18 24 1025.6 - 0.0
20/10:03am 19.2 15.5 15.9 81 2.0 ENE 30 52 16 28 1025.4 - 0.0
20/10:00am 19.1 15.4 16.0 82 1.8 ENE 30 44 16 24 1025.4 - 0.0
20/09:30am 18.6 13.8 15.7 83 1.7 E 35 46 19 25 1025.3 - 0.0
20/09:00am 18.6 14.8 15.7 83 1.7 E 30 43 16 23 1025.2 1025.2 0.0
20/08:30am 18.2 13.9 15.5 84 1.6 E 32 43 17 23 1024.9 - 0.0
20/08:00am 17.9 13.9 15.3 85 1.5 E 30 43 16 23 1024.9 - 0.0
20/07:35am 17.5 13.8 15.1 86 1.4 E 28 48 15 26 1024.8 - 0.0
20/07:30am 17.5 14.0 15.5 88 1.2 E 28 39 15 21 1024.7 - 0.0
20/07:00am 16.9 12.9 15.2 90 1.0 E 30 37 16 20 1024.3 - 0.0
20/06:30am 16.7 13.5 15.2 91 0.9 E 26 35 14 19 1024.2 - 0.0
20/06:00am 16.5 13.7 15.4 93 0.6 E 24 32 13 17 1024.2 1024.2 0.0
20/05:30am 16.3 13.5 15.3 94 0.6 E 24 35 13 19 1023.7 - 0.0
20/05:00am 16.4 14.0 15.4 94 0.6 E 22 32 12 17 1023.6 - 0.0
20/04:30am 16.3 14.3 15.5 95 0.5 E 20 33 11 18 1023.6 - 0.0
20/04:00am 15.9 13.1 15.3 96 0.3 E 24 33 13 18 1023.6 - 0.0

Other Formats:

Comma delimited format used in spreadsheet applications
http://www.bom.gov.au/fwo/IDT60801/IDT60801.94953.axf

JavaScript Object Notation format (JSON) in row-major order
http://www.bom.gov.au/fwo/IDT60801/IDT60801.94953.json